SWA728 KDFW-KMEM
Flight info
| Callsign | SWA728 |
|---|---|
| Flight time | 1h 7m |
| Altitude | 35000 |
| Route | FORCK3 FORCK ELD HOBRK4 |
| Aircraft | B738/M-SDE2E3FGHIRWXY/LB1 |
Departure
| Time | 2026-05-04 16:33 |
|---|---|
| Airport | Dallas Fort Worth International Airport (KDFW) |
Arrival
| Time | 2026-05-04 17:40 |
|---|---|
| Airport | Memphis International Airport (KMEM) |
| Time | Latitude | Longitude | Altitude | Speed | Heading |
|---|---|---|---|---|---|
| 2026-05-04 16:20 | 32.89711 | -97.04580 | 597 ft | 0 kts | 90° |
| 2026-05-04 16:22 | 32.89711 | -97.04615 | 597 ft | 2 kts | 90° |
| 2026-05-04 16:22 | 32.89702 | -97.04669 | 597 ft | 2 kts | 7° |
| 2026-05-04 16:23 | 32.89680 | -97.04670 | 597 ft | 0 kts | 0° |
| 2026-05-04 16:26 | 32.89918 | -97.04766 | 597 ft | 23 kts | 0° |
| 2026-05-04 16:26 | 32.90474 | -97.04763 | 597 ft | 25 kts | 0° |
| 2026-05-04 16:27 | 32.90479 | -97.04790 | 597 ft | 8 kts | 77° |
| 2026-05-04 16:28 | 32.90785 | -97.04761 | 597 ft | 20 kts | 0° |
| 2026-05-04 16:28 | 32.90908 | -97.04464 | 597 ft | 20 kts | 90° |
| 2026-05-04 16:29 | 32.90905 | -97.03629 | 597 ft | 24 kts | 90° |
| 2026-05-04 16:30 | 32.90942 | -97.03189 | 597 ft | 16 kts | 6° |
| 2026-05-04 16:31 | 32.91208 | -97.03186 | 597 ft | 20 kts | 360° |
| 2026-05-04 16:31 | 32.91558 | -97.03142 | 597 ft | 14 kts | 83° |
| 2026-05-04 16:32 | 32.91497 | -97.02990 | 597 ft | 0 kts | 180° |
| 2026-05-04 16:33 | 32.91083 | -97.02992 | 597 ft | 89 kts | 180° |
| 2026-05-04 16:33 | 32.89236 | -97.02978 | 1228 ft | 149 kts | 180° |
| 2026-05-04 16:34 | 32.87212 | -97.02953 | 2736 ft | 154 kts | 185° |
| 2026-05-04 16:34 | 32.86040 | -97.02951 | 2960 ft | 180 kts | 184° |
| 2026-05-04 16:35 | 32.81560 | -97.02951 | 3894 ft | 240 kts | 185° |
| 2026-05-04 16:35 | 32.76286 | -97.02981 | 5877 ft | 264 kts | 184° |
| 2026-05-04 16:36 | 32.74435 | -97.02992 | 6625 ft | 267 kts | 182° |
| 2026-05-04 16:36 | 32.70911 | -97.01499 | 7952 ft | 294 kts | 135° |
| 2026-05-04 16:37 | 32.69389 | -96.96908 | 9160 ft | 314 kts | 104° |
| 2026-05-04 16:37 | 32.68896 | -96.94375 | 9931 ft | 315 kts | 100° |
| 2026-05-04 16:37 | 32.69079 | -96.88997 | 10571 ft | 347 kts | 82° |
| 2026-05-04 16:38 | 32.69549 | -96.83078 | 11493 ft | 367 kts | 83° |
| 2026-05-04 16:39 | 32.70904 | -96.73967 | 13350 ft | 380 kts | 70° |
| 2026-05-04 16:39 | 32.72327 | -96.67854 | 14593 ft | 388 kts | 70° |
| 2026-05-04 16:40 | 32.73724 | -96.61581 | 15831 ft | 398 kts | 71° |
| 2026-05-04 16:40 | 32.75103 | -96.55137 | 17104 ft | 406 kts | 72° |
| 2026-05-04 16:41 | 32.76493 | -96.48564 | 18301 ft | 415 kts | 72° |
| 2026-05-04 16:41 | 32.78629 | -96.38431 | 19895 ft | 427 kts | 72° |
| 2026-05-04 16:42 | 32.80470 | -96.27907 | 21433 ft | 442 kts | 79° |
| 2026-05-04 16:43 | 32.81131 | -96.20568 | 22416 ft | 450 kts | 81° |
| 2026-05-04 16:43 | 32.81821 | -96.13101 | 23387 ft | 458 kts | 79° |
| 2026-05-04 16:43 | 32.82192 | -96.09379 | 23788 ft | 461 kts | 79° |
| 2026-05-04 16:44 | 32.83768 | -95.94059 | 25359 ft | 474 kts | 78° |
| 2026-05-04 16:45 | 32.84565 | -95.86220 | 26098 ft | 481 kts | 78° |
| 2026-05-04 16:46 | 32.85773 | -95.74253 | 27154 ft | 491 kts | 78° |
| 2026-05-04 16:46 | 32.86583 | -95.66153 | 27929 ft | 494 kts | 78° |
| 2026-05-04 16:47 | 32.87394 | -95.57983 | 28594 ft | 501 kts | 78° |
| 2026-05-04 16:47 | 32.88212 | -95.49690 | 29211 ft | 507 kts | 78° |
| 2026-05-04 16:48 | 32.89446 | -95.37074 | 30122 ft | 516 kts | 78° |
| 2026-05-04 16:48 | 32.89858 | -95.32825 | 30364 ft | 519 kts | 78° |
| 2026-05-04 16:49 | 32.90687 | -95.24248 | 30860 ft | 524 kts | 77° |
| 2026-05-04 16:49 | 32.91515 | -95.15601 | 31426 ft | 527 kts | 77° |
| 2026-05-04 16:50 | 32.92340 | -95.06920 | 31975 ft | 530 kts | 76° |
| 2026-05-04 16:50 | 32.93160 | -94.98235 | 32507 ft | 532 kts | 76° |
| 2026-05-04 16:51 | 32.93980 | -94.89475 | 33154 ft | 532 kts | 75° |
| 2026-05-04 16:51 | 32.94386 | -94.85101 | 33443 ft | 533 kts | 75° |
| 2026-05-04 16:51 | 32.95203 | -94.76305 | 33890 ft | 536 kts | 74° |
| 2026-05-04 16:52 | 32.96013 | -94.67482 | 34457 ft | 535 kts | 74° |
| 2026-05-04 16:52 | 32.96412 | -94.63089 | 34798 ft | 532 kts | 74° |
| 2026-05-04 16:53 | 32.97208 | -94.54320 | 35025 ft | 533 kts | 74° |
| 2026-05-04 16:54 | 32.98774 | -94.36881 | 35025 ft | 527 kts | 74° |
| 2026-05-04 16:55 | 33.00687 | -94.19684 | 35034 ft | 516 kts | 67° |
| 2026-05-04 16:55 | 33.02265 | -94.11362 | 35030 ft | 515 kts | 66° |
| 2026-05-04 16:56 | 33.06068 | -93.90456 | 35037 ft | 518 kts | 68° |
| 2026-05-04 16:57 | 33.08240 | -93.77833 | 35021 ft | 519 kts | 68° |
| 2026-05-04 16:58 | 33.11139 | -93.60944 | 35052 ft | 522 kts | 68° |
| 2026-05-04 17:00 | 33.15488 | -93.35354 | 35027 ft | 527 kts | 68° |
| 2026-05-04 17:01 | 33.19079 | -93.13955 | 35030 ft | 527 kts | 69° |
| 2026-05-04 17:02 | 33.21932 | -92.96785 | 35040 ft | 527 kts | 69° |
| 2026-05-04 17:03 | 33.24050 | -92.83945 | 35034 ft | 524 kts | 69° |
| 2026-05-04 17:03 | 33.26977 | -92.71722 | 35056 ft | 482 kts | 43° |
| 2026-05-04 17:04 | 33.34735 | -92.58668 | 35044 ft | 482 kts | 41° |
| 2026-05-04 17:05 | 33.42384 | -92.45551 | 35034 ft | 481 kts | 42° |
| 2026-05-04 17:06 | 33.48079 | -92.35684 | 35044 ft | 479 kts | 41° |
| 2026-05-04 17:07 | 33.53120 | -92.26939 | 35067 ft | 479 kts | 42° |
| 2026-05-04 17:07 | 33.57550 | -92.19242 | 35050 ft | 479 kts | 42° |
| 2026-05-04 17:08 | 33.63223 | -92.09357 | 35039 ft | 480 kts | 43° |
| 2026-05-04 17:09 | 33.67004 | -92.02752 | 35062 ft | 480 kts | 43° |
| 2026-05-04 17:09 | 33.70788 | -91.96132 | 35043 ft | 481 kts | 43° |
| 2026-05-04 17:10 | 33.80284 | -91.79461 | 33871 ft | 481 kts | 44° |
| 2026-05-04 17:11 | 33.82161 | -91.76147 | 33394 ft | 478 kts | 44° |
| 2026-05-04 17:11 | 33.84025 | -91.72859 | 32951 ft | 474 kts | 44° |
| 2026-05-04 17:11 | 33.87707 | -91.66364 | 32119 ft | 466 kts | 45° |
| 2026-05-04 17:12 | 33.89529 | -91.63150 | 31708 ft | 463 kts | 45° |
| 2026-05-04 17:12 | 33.93134 | -91.56792 | 30891 ft | 455 kts | 44° |
| 2026-05-04 17:13 | 33.99157 | -91.48329 | 29584 ft | 440 kts | 39° |
| 2026-05-04 17:14 | 34.05232 | -91.40186 | 28302 ft | 430 kts | 41° |
| 2026-05-04 17:14 | 34.07201 | -91.37481 | 27887 ft | 427 kts | 41° |
| 2026-05-04 17:14 | 34.11081 | -91.32118 | 27083 ft | 421 kts | 41° |
| 2026-05-04 17:15 | 34.12998 | -91.29464 | 26681 ft | 418 kts | 42° |
| 2026-05-04 17:15 | 34.16801 | -91.24198 | 25895 ft | 414 kts | 42° |
| 2026-05-04 17:16 | 34.20564 | -91.18983 | 25117 ft | 409 kts | 43° |
| 2026-05-04 17:16 | 34.26146 | -91.11255 | 23931 ft | 405 kts | 44° |
| 2026-05-04 17:17 | 34.27997 | -91.08690 | 23526 ft | 404 kts | 44° |
| 2026-05-04 17:17 | 34.33497 | -91.01053 | 22254 ft | 398 kts | 45° |
| 2026-05-04 17:18 | 34.35305 | -90.98537 | 21862 ft | 395 kts | 45° |
| 2026-05-04 17:18 | 34.38288 | -90.94384 | 21217 ft | 391 kts | 45° |
| 2026-05-04 17:19 | 34.42433 | -90.88604 | 20330 ft | 386 kts | 46° |
| 2026-05-04 17:19 | 34.45350 | -90.84532 | 19713 ft | 384 kts | 47° |
| 2026-05-04 17:20 | 34.48833 | -90.79663 | 18949 ft | 381 kts | 47° |
| 2026-05-04 17:20 | 34.52253 | -90.74782 | 18178 ft | 378 kts | 49° |
| 2026-05-04 17:20 | 34.53923 | -90.72328 | 17763 ft | 376 kts | 50° |
| 2026-05-04 17:21 | 34.57233 | -90.67460 | 16980 ft | 371 kts | 50° |
| 2026-05-04 17:21 | 34.60506 | -90.62664 | 16244 ft | 367 kts | 50° |
| 2026-05-04 17:22 | 34.62637 | -90.59508 | 15778 ft | 363 kts | 51° |
| 2026-05-04 17:22 | 34.63688 | -90.57883 | 15555 ft | 361 kts | 52° |
| 2026-05-04 17:23 | 34.68233 | -90.50728 | 14567 ft | 353 kts | 52° |
| 2026-05-04 17:23 | 34.69734 | -90.48377 | 14240 ft | 350 kts | 52° |
| 2026-05-04 17:23 | 34.72706 | -90.43727 | 13585 ft | 346 kts | 52° |
| 2026-05-04 17:24 | 34.74180 | -90.41418 | 13248 ft | 344 kts | 52° |
| 2026-05-04 17:24 | 34.78521 | -90.34608 | 12272 ft | 338 kts | 52° |
| 2026-05-04 17:25 | 34.79956 | -90.32355 | 11961 ft | 336 kts | 52° |
| 2026-05-04 17:25 | 34.82802 | -90.27881 | 11343 ft | 332 kts | 52° |
| 2026-05-04 17:26 | 34.85616 | -90.23452 | 10720 ft | 329 kts | 52° |
| 2026-05-04 17:26 | 34.89779 | -90.16887 | 9808 ft | 324 kts | 51° |
| 2026-05-04 17:27 | 34.92610 | -90.12649 | 9140 ft | 321 kts | 38° |
| 2026-05-04 17:27 | 34.96605 | -90.11055 | 8582 ft | 294 kts | 357° |
| 2026-05-04 17:28 | 35.00583 | -90.11019 | 8056 ft | 279 kts | 356° |
| 2026-05-04 17:29 | 35.06270 | -90.10950 | 7300 ft | 271 kts | 357° |
| 2026-05-04 17:29 | 35.11897 | -90.10888 | 6554 ft | 268 kts | 356° |
| 2026-05-04 17:30 | 35.17278 | -90.10976 | 5794 ft | 251 kts | 356° |
| 2026-05-04 17:31 | 35.20681 | -90.11014 | 5331 ft | 238 kts | 354° |
| 2026-05-04 17:31 | 35.25483 | -90.11098 | 4698 ft | 222 kts | 354° |
| 2026-05-04 17:32 | 35.28462 | -90.11147 | 4292 ft | 208 kts | 353° |
| 2026-05-04 17:33 | 35.31328 | -90.08244 | 3801 ft | 200 kts | 102° |
| 2026-05-04 17:33 | 35.30944 | -90.06656 | 3727 ft | 194 kts | 124° |
| 2026-05-04 17:34 | 35.28942 | -90.02379 | 3400 ft | 192 kts | 128° |
| 2026-05-04 17:34 | 35.28277 | -90.00977 | 3290 ft | 189 kts | 128° |
| 2026-05-04 17:35 | 35.25649 | -89.98083 | 3086 ft | 170 kts | 184° |
| 2026-05-04 17:35 | 35.23280 | -89.97999 | 2972 ft | 167 kts | 185° |
| 2026-05-04 17:35 | 35.22127 | -89.97973 | 2973 ft | 166 kts | 185° |
| 2026-05-04 17:36 | 35.20958 | -89.97945 | 2977 ft | 170 kts | 185° |
| 2026-05-04 17:36 | 35.19773 | -89.97921 | 2966 ft | 172 kts | 186° |
| 2026-05-04 17:36 | 35.18552 | -89.97903 | 2734 ft | 179 kts | 185° |
| 2026-05-04 17:36 | 35.17343 | -89.97862 | 2540 ft | 167 kts | 184° |
| 2026-05-04 17:37 | 35.16239 | -89.97839 | 2367 ft | 149 kts | 186° |
| 2026-05-04 17:37 | 35.15220 | -89.97819 | 2172 ft | 147 kts | 185° |
| 2026-05-04 17:37 | 35.14208 | -89.97826 | 1953 ft | 143 kts | 184° |
| 2026-05-04 17:37 | 35.13241 | -89.97789 | 1780 ft | 139 kts | 183° |
| 2026-05-04 17:38 | 35.12259 | -89.97762 | 1611 ft | 151 kts | 185° |
| 2026-05-04 17:38 | 35.11222 | -89.97738 | 1418 ft | 149 kts | 184° |
| 2026-05-04 17:38 | 35.10214 | -89.97725 | 1214 ft | 143 kts | 183° |
| 2026-05-04 17:38 | 35.09207 | -89.97695 | 1050 ft | 144 kts | 185° |
| 2026-05-04 17:39 | 35.07246 | -89.97663 | 670 ft | 143 kts | 185° |
| 2026-05-04 17:39 | 35.06265 | -89.97634 | 484 ft | 140 kts | 183° |
| 2026-05-04 17:39 | 35.05293 | -89.97613 | 331 ft | 144 kts | 182° |
| 2026-05-04 17:40 | 35.04375 | -89.97595 | 315 ft | 112 kts | 179° |
| 2026-05-04 17:40 | 35.03752 | -89.97581 | 306 ft | 68 kts | 179° |
| 2026-05-04 17:40 | 35.03409 | -89.97579 | 298 ft | 28 kts | 184° |
| 2026-05-04 17:40 | 35.03240 | -89.97645 | 300 ft | 19 kts | 233° |
| 2026-05-04 17:41 | 35.03283 | -89.97721 | 301 ft | 13 kts | 0° |
| 2026-05-04 17:41 | 35.03370 | -89.97724 | 298 ft | 12 kts | 358° |
| 2026-05-04 17:41 | 35.03455 | -89.97726 | 297 ft | 12 kts | 359° |
| 2026-05-04 17:41 | 35.03538 | -89.97727 | 300 ft | 12 kts | 360° |
| 2026-05-04 17:42 | 35.03619 | -89.97729 | 302 ft | 12 kts | 359° |
| 2026-05-04 17:42 | 35.03708 | -89.97731 | 305 ft | 14 kts | 359° |
| 2026-05-04 17:42 | 35.03821 | -89.97733 | 308 ft | 18 kts | 359° |
| 2026-05-04 17:42 | 35.03954 | -89.97736 | 310 ft | 8 kts | 359° |
| 2026-05-04 17:43 | 35.03983 | -89.97781 | 311 ft | 8 kts | 279° |
| 2026-05-04 17:43 | 35.04040 | -89.97837 | 312 ft | 15 kts | 359° |
| 2026-05-04 17:43 | 35.04146 | -89.97837 | 313 ft | 15 kts | 1° |
| 2026-05-04 17:43 | 35.04259 | -89.97834 | 315 ft | 17 kts | 359° |
| 2026-05-04 17:44 | 35.04336 | -89.97837 | 316 ft | 10 kts | 359° |
| 2026-05-04 17:44 | 35.04392 | -89.97872 | 315 ft | 10 kts | 306° |
| 2026-05-04 17:44 | 35.04415 | -89.97910 | 313 ft | 0 kts | 306° |